sensor_id;sensor_type;location;lat;lon;timestamp;P1;durP1;ratioP1;P2;durP2;ratioP2
51907;SDS011;39320;53.214;6.556;2022-08-30T00:00:26;3.35;;;2.00;;
51907;SDS011;39320;53.214;6.556;2022-08-30T00:03:11;3.80;;;1.70;;
51907;SDS011;39320;53.214;6.556;2022-08-30T00:05:38;5.85;;;1.95;;
51907;SDS011;39320;53.214;6.556;2022-08-30T00:08:05;3.45;;;1.52;;
51907;SDS011;39320;53.214;6.556;2022-08-30T00:10:31;4.68;;;2.00;;
51907;SDS011;39320;53.214;6.556;2022-08-30T00:12:57;2.55;;;1.70;;
51907;SDS011;39320;53.214;6.556;2022-08-30T00:15:24;4.35;;;1.92;;
51907;SDS011;39320;53.214;6.556;2022-08-30T00:17:51;3.30;;;1.50;;
51907;SDS011;39320;53.214;6.556;2022-08-30T00:20:19;2.78;;;1.70;;
51907;SDS011;39320;53.214;6.556;2022-08-30T00:22:49;4.25;;;1.73;;
51907;SDS011;39320;53.214;6.556;2022-08-30T00:25:14;3.08;;;1.85;;
51907;SDS011;39320;53.214;6.556;2022-08-30T00:27:41;5.57;;;2.00;;
51907;SDS011;39320;53.214;6.556;2022-08-30T00:30:08;3.28;;;2.03;;
51907;SDS011;39320;53.214;6.556;2022-08-30T00:32:35;5.93;;;2.20;;
51907;SDS011;39320;53.214;6.556;2022-08-30T00:35:00;5.32;;;1.83;;
51907;SDS011;39320;53.214;6.556;2022-08-30T00:37:27;2.97;;;1.65;;
51907;SDS011;39320;53.214;6.556;2022-08-30T00:39:53;4.82;;;1.92;;
51907;SDS011;39320;53.214;6.556;2022-08-30T00:42:19;3.17;;;1.50;;
51907;SDS011;39320;53.214;6.556;2022-08-30T00:44:45;2.55;;;1.77;;
51907;SDS011;39320;53.214;6.556;2022-08-30T00:47:12;3.08;;;1.35;;
51907;SDS011;39320;53.214;6.556;2022-08-30T00:49:40;2.92;;;1.70;;
51907;SDS011;39320;53.214;6.556;2022-08-30T00:52:08;3.67;;;1.63;;
51907;SDS011;39320;53.214;6.556;2022-08-30T00:54:36;3.38;;;1.77;;
51907;SDS011;39320;53.214;6.556;2022-08-30T00:57:03;4.32;;;2.17;;
51907;SDS011;39320;53.214;6.556;2022-08-30T00:59:29;4.28;;;1.90;;
51907;SDS011;39320;53.214;6.556;2022-08-30T01:01:56;3.25;;;1.90;;
51907;SDS011;39320;53.214;6.556;2022-08-30T01:04:23;5.10;;;1.48;;
51907;SDS011;39320;53.214;6.556;2022-08-30T01:06:50;3.22;;;2.00;;
51907;SDS011;39320;53.214;6.556;2022-08-30T01:09:17;5.20;;;1.98;;
51907;SDS011;39320;53.214;6.556;2022-08-30T01:11:43;4.53;;;1.90;;
51907;SDS011;39320;53.214;6.556;2022-08-30T01:14:11;4.28;;;2.08;;
51907;SDS011;39320;53.214;6.556;2022-08-30T01:16:38;5.38;;;2.15;;
51907;SDS011;39320;53.214;6.556;2022-08-30T01:19:08;3.47;;;1.85;;
51907;SDS011;39320;53.214;6.556;2022-08-30T01:21:47;5.03;;;2.20;;
51907;SDS011;39320;53.214;6.556;2022-08-30T01:24:16;2.60;;;1.60;;
51907;SDS011;39320;53.214;6.556;2022-08-30T01:26:43;4.07;;;1.73;;
51907;SDS011;39320;53.214;6.556;2022-08-30T01:29:10;5.03;;;1.73;;
51907;SDS011;39320;53.214;6.556;2022-08-30T01:31:41;5.38;;;2.22;;
51907;SDS011;39320;53.214;6.556;2022-08-30T01:34:07;4.38;;;1.90;;
51907;SDS011;39320;53.214;6.556;2022-08-30T01:36:37;2.72;;;2.03;;
51907;SDS011;39320;53.214;6.556;2022-08-30T01:39:06;3.70;;;1.63;;
51907;SDS011;39320;53.214;6.556;2022-08-30T01:41:35;1.73;;;1.55;;
51907;SDS011;39320;53.214;6.556;2022-08-30T01:44:03;6.53;;;2.17;;
51907;SDS011;39320;53.214;6.556;2022-08-30T01:46:34;2.97;;;1.95;;
51907;SDS011;39320;53.214;6.556;2022-08-30T01:49:03;2.97;;;1.98;;
51907;SDS011;39320;53.214;6.556;2022-08-30T01:51:32;4.32;;;2.50;;
51907;SDS011;39320;53.214;6.556;2022-08-30T01:53:58;6.88;;;2.28;;
51907;SDS011;39320;53.214;6.556;2022-08-30T01:56:27;3.33;;;2.40;;
51907;SDS011;39320;53.214;6.556;2022-08-30T01:58:54;5.90;;;2.75;;
51907;SDS011;39320;53.214;6.556;2022-08-30T02:01:22;3.30;;;2.45;;
51907;SDS011;39320;53.214;6.556;2022-08-30T02:03:49;5.85;;;2.58;;
51907;SDS011;39320;53.214;6.556;2022-08-30T02:06:17;5.22;;;2.70;;
51907;SDS011;39320;53.214;6.556;2022-08-30T02:08:44;5.38;;;3.10;;
51907;SDS011;39320;53.214;6.556;2022-08-30T02:11:10;6.10;;;2.50;;
51907;SDS011;39320;53.214;6.556;2022-08-30T02:13:37;4.53;;;2.78;;
51907;SDS011;39320;53.214;6.556;2022-08-30T02:16:05;5.18;;;2.75;;
51907;SDS011;39320;53.214;6.556;2022-08-30T02:18:33;3.45;;;2.60;;
51907;SDS011;39320;53.214;6.556;2022-08-30T02:20:59;3.90;;;2.75;;
51907;SDS011;39320;53.214;6.556;2022-08-30T02:23:25;4.07;;;2.65;;
51907;SDS011;39320;53.214;6.556;2022-08-30T02:25:51;5.45;;;2.67;;
51907;SDS011;39320;53.214;6.556;2022-08-30T02:28:17;5.30;;;2.80;;
51907;SDS011;39320;53.214;6.556;2022-08-30T02:30:44;3.97;;;2.60;;
51907;SDS011;39320;53.214;6.556;2022-08-30T02:33:10;3.65;;;2.60;;
51907;SDS011;39320;53.214;6.556;2022-08-30T02:35:36;5.35;;;2.63;;
51907;SDS011;39320;53.214;6.556;2022-08-30T02:38:02;2.92;;;2.28;;
51907;SDS011;39320;53.214;6.556;2022-08-30T02:40:29;3.33;;;2.80;;
51907;SDS011;39320;53.214;6.556;2022-08-30T02:42:54;4.55;;;2.60;;
51907;SDS011;39320;53.214;6.556;2022-08-30T02:45:21;6.22;;;2.67;;
51907;SDS011;39320;53.214;6.556;2022-08-30T02:47:47;7.07;;;2.80;;
51907;SDS011;39320;53.214;6.556;2022-08-30T02:50:13;4.70;;;2.83;;
51907;SDS011;39320;53.214;6.556;2022-08-30T02:52:39;3.40;;;2.72;;
51907;SDS011;39320;53.214;6.556;2022-08-30T02:55:05;4.80;;;2.70;;
51907;SDS011;39320;53.214;6.556;2022-08-30T02:57:32;5.95;;;3.00;;
51907;SDS011;39320;53.214;6.556;2022-08-30T02:59:58;3.53;;;2.80;;
51907;SDS011;39320;53.214;6.556;2022-08-30T03:02:24;4.50;;;2.85;;
51907;SDS011;39320;53.214;6.556;2022-08-30T03:04:50;5.63;;;3.10;;
51907;SDS011;39320;53.214;6.556;2022-08-30T03:07:16;4.53;;;3.20;;
51907;SDS011;39320;53.214;6.556;2022-08-30T03:09:43;4.57;;;3.35;;
51907;SDS011;39320;53.214;6.556;2022-08-30T03:12:09;4.68;;;3.30;;
51907;SDS011;39320;53.214;6.556;2022-08-30T03:14:35;4.30;;;2.88;;
51907;SDS011;39320;53.214;6.556;2022-08-30T03:17:03;5.45;;;3.17;;
51907;SDS011;39320;53.214;6.556;2022-08-30T03:19:31;4.80;;;3.60;;
51907;SDS011;39320;53.214;6.556;2022-08-30T03:21:57;7.00;;;3.97;;
51907;SDS011;39320;53.214;6.556;2022-08-30T03:24:23;7.00;;;3.50;;
51907;SDS011;39320;53.214;6.556;2022-08-30T03:26:50;4.95;;;4.13;;
51907;SDS011;39320;53.214;6.556;2022-08-30T03:29:16;6.97;;;4.50;;
51907;SDS011;39320;53.214;6.556;2022-08-30T03:31:42;5.72;;;4.78;;
51907;SDS011;39320;53.214;6.556;2022-08-30T03:34:08;7.50;;;5.20;;
51907;SDS011;39320;53.214;6.556;2022-08-30T03:36:35;5.85;;;5.30;;
51907;SDS011;39320;53.214;6.556;2022-08-30T03:39:03;8.05;;;5.38;;
51907;SDS011;39320;53.214;6.556;2022-08-30T03:41:30;6.15;;;4.68;;
51907;SDS011;39320;53.214;6.556;2022-08-30T03:43:56;7.07;;;5.90;;
51907;SDS011;39320;53.214;6.556;2022-08-30T03:46:23;10.88;;;5.60;;
51907;SDS011;39320;53.214;6.556;2022-08-30T03:48:49;6.82;;;5.72;;
51907;SDS011;39320;53.214;6.556;2022-08-30T03:51:16;8.35;;;5.57;;
51907;SDS011;39320;53.214;6.556;2022-08-30T03:53:42;7.45;;;5.43;;
51907;SDS011;39320;53.214;6.556;2022-08-30T03:56:09;7.25;;;5.43;;
51907;SDS011;39320;53.214;6.556;2022-08-30T03:58:35;5.63;;;4.80;;
51907;SDS011;39320;53.214;6.556;2022-08-30T04:01:00;6.28;;;4.50;;
51907;SDS011;39320;53.214;6.556;2022-08-30T04:03:26;5.63;;;4.40;;
51907;SDS011;39320;53.214;6.556;2022-08-30T04:05:53;6.28;;;4.15;;
51907;SDS011;39320;53.214;6.556;2022-08-30T04:08:19;6.82;;;3.47;;
51907;SDS011;39320;53.214;6.556;2022-08-30T04:10:46;6.20;;;3.05;;
51907;SDS011;39320;53.214;6.556;2022-08-30T04:13:15;6.70;;;3.63;;
51907;SDS011;39320;53.214;6.556;2022-08-30T04:15:41;4.68;;;2.88;;
51907;SDS011;39320;53.214;6.556;2022-08-30T04:18:07;9.10;;;3.47;;
51907;SDS011;39320;53.214;6.556;2022-08-30T04:20:33;3.28;;;2.78;;
51907;SDS011;39320;53.214;6.556;2022-08-30T04:22:58;3.65;;;2.40;;
51907;SDS011;39320;53.214;6.556;2022-08-30T04:25:26;3.55;;;2.28;;
51907;SDS011;39320;53.214;6.556;2022-08-30T04:27:52;3.30;;;2.05;;
51907;SDS011;39320;53.214;6.556;2022-08-30T04:30:17;2.55;;;1.98;;
51907;SDS011;39320;53.214;6.556;2022-08-30T04:32:43;3.75;;;2.00;;
51907;SDS011;39320;53.214;6.556;2022-08-30T04:35:10;3.25;;;2.03;;
51907;SDS011;39320;53.214;6.556;2022-08-30T04:37:37;3.05;;;1.90;;
51907;SDS011;39320;53.214;6.556;2022-08-30T04:40:03;4.70;;;2.10;;
51907;SDS011;39320;53.214;6.556;2022-08-30T04:42:30;6.30;;;2.08;;
51907;SDS011;39320;53.214;6.556;2022-08-30T04:44:58;3.85;;;2.17;;
51907;SDS011;39320;53.214;6.556;2022-08-30T04:47:26;3.33;;;1.80;;
51907;SDS011;39320;53.214;6.556;2022-08-30T04:49:51;3.22;;;1.80;;
51907;SDS011;39320;53.214;6.556;2022-08-30T04:52:17;5.45;;;2.35;;
51907;SDS011;39320;53.214;6.556;2022-08-30T04:54:43;3.08;;;2.00;;
51907;SDS011;39320;53.214;6.556;2022-08-30T04:57:09;3.08;;;2.35;;
51907;SDS011;39320;53.214;6.556;2022-08-30T04:59:35;4.32;;;2.13;;
51907;SDS011;39320;53.214;6.556;2022-08-30T05:02:02;4.53;;;2.20;;
51907;SDS011;39320;53.214;6.556;2022-08-30T05:04:29;3.80;;;2.17;;
51907;SDS011;39320;53.214;6.556;2022-08-30T05:06:54;6.28;;;2.60;;
51907;SDS011;39320;53.214;6.556;2022-08-30T05:09:20;3.80;;;2.13;;
51907;SDS011;39320;53.214;6.556;2022-08-30T05:11:46;3.03;;;1.92;;
51907;SDS011;39320;53.214;6.556;2022-08-30T05:14:12;4.63;;;2.40;;
51907;SDS011;39320;53.214;6.556;2022-08-30T05:16:38;5.00;;;2.40;;
51907;SDS011;39320;53.214;6.556;2022-08-30T05:19:05;4.32;;;2.10;;
51907;SDS011;39320;53.214;6.556;2022-08-30T05:21:32;3.65;;;2.55;;
51907;SDS011;39320;53.214;6.556;2022-08-30T05:23:58;5.35;;;2.22;;
51907;SDS011;39320;53.214;6.556;2022-08-30T05:26:31;4.72;;;2.38;;
51907;SDS011;39320;53.214;6.556;2022-08-30T05:28:58;6.72;;;2.85;;
51907;SDS011;39320;53.214;6.556;2022-08-30T05:31:26;4.68;;;2.83;;
51907;SDS011;39320;53.214;6.556;2022-08-30T05:33:54;4.38;;;2.53;;
51907;SDS011;39320;53.214;6.556;2022-08-30T05:36:20;3.85;;;3.03;;
51907;SDS011;39320;53.214;6.556;2022-08-30T05:38:48;5.32;;;2.65;;
51907;SDS011;39320;53.214;6.556;2022-08-30T05:41:14;3.45;;;2.10;;
51907;SDS011;39320;53.214;6.556;2022-08-30T05:43:44;3.90;;;2.42;;
51907;SDS011;39320;53.214;6.556;2022-08-30T05:46:10;3.70;;;2.45;;
51907;SDS011;39320;53.214;6.556;2022-08-30T05:48:40;6.55;;;2.30;;
51907;SDS011;39320;53.214;6.556;2022-08-30T05:51:07;4.28;;;2.40;;
51907;SDS011;39320;53.214;6.556;2022-08-30T05:53:35;3.30;;;2.45;;
51907;SDS011;39320;53.214;6.556;2022-08-30T05:56:02;4.97;;;2.67;;
51907;SDS011;39320;53.214;6.556;2022-08-30T05:58:29;3.88;;;2.42;;
51907;SDS011;39320;53.214;6.556;2022-08-30T06:00:56;4.38;;;2.28;;
51907;SDS011;39320;53.214;6.556;2022-08-30T06:03:22;7.05;;;2.88;;
51907;SDS011;39320;53.214;6.556;2022-08-30T06:05:48;4.57;;;2.58;;
51907;SDS011;39320;53.214;6.556;2022-08-30T06:08:13;6.65;;;2.53;;
51907;SDS011;39320;53.214;6.556;2022-08-30T06:10:39;5.05;;;2.80;;
51907;SDS011;39320;53.214;6.556;2022-08-30T06:13:05;6.32;;;2.67;;
51907;SDS011;39320;53.214;6.556;2022-08-30T06:15:31;4.18;;;2.50;;
51907;SDS011;39320;53.214;6.556;2022-08-30T06:17:56;4.85;;;2.45;;
51907;SDS011;39320;53.214;6.556;2022-08-30T06:20:22;3.72;;;2.40;;
51907;SDS011;39320;53.214;6.556;2022-08-30T06:22:48;3.25;;;2.20;;
51907;SDS011;39320;53.214;6.556;2022-08-30T06:25:14;4.55;;;2.00;;
51907;SDS011;39320;53.214;6.556;2022-08-30T06:27:40;3.80;;;2.25;;
51907;SDS011;39320;53.214;6.556;2022-08-30T06:30:07;4.00;;;2.00;;
51907;SDS011;39320;53.214;6.556;2022-08-30T06:32:35;3.60;;;2.08;;
51907;SDS011;39320;53.214;6.556;2022-08-30T06:35:04;5.03;;;2.40;;
51907;SDS011;39320;53.214;6.556;2022-08-30T06:37:32;3.35;;;2.08;;
51907;SDS011;39320;53.214;6.556;2022-08-30T06:39:58;3.45;;;2.30;;
51907;SDS011;39320;53.214;6.556;2022-08-30T06:42:25;3.05;;;2.08;;
51907;SDS011;39320;53.214;6.556;2022-08-30T06:45:02;3.50;;;2.00;;
51907;SDS011;39320;53.214;6.556;2022-08-30T06:47:28;4.75;;;2.30;;
51907;SDS011;39320;53.214;6.556;2022-08-30T06:49:54;3.13;;;1.77;;
51907;SDS011;39320;53.214;6.556;2022-08-30T06:52:21;4.10;;;1.63;;
51907;SDS011;39320;53.214;6.556;2022-08-30T06:54:47;5.15;;;1.38;;
51907;SDS011;39320;53.214;6.556;2022-08-30T06:57:14;6.63;;;1.40;;
51907;SDS011;39320;53.214;6.556;2022-08-30T06:59:40;6.97;;;1.45;;
51907;SDS011;39320;53.214;6.556;2022-08-30T07:02:06;2.65;;;1.15;;
51907;SDS011;39320;53.214;6.556;2022-08-30T07:04:32;2.17;;;1.33;;
51907;SDS011;39320;53.214;6.556;2022-08-30T07:06:58;5.80;;;1.67;;
51907;SDS011;39320;53.214;6.556;2022-08-30T07:09:24;3.78;;;1.30;;
51907;SDS011;39320;53.214;6.556;2022-08-30T07:11:50;3.00;;;1.02;;
51907;SDS011;39320;53.214;6.556;2022-08-30T07:14:16;2.72;;;1.13;;
51907;SDS011;39320;53.214;6.556;2022-08-30T07:16:43;1.98;;;1.10;;
51907;SDS011;39320;53.214;6.556;2022-08-30T07:19:09;1.45;;;0.85;;
51907;SDS011;39320;53.214;6.556;2022-08-30T07:21:36;2.58;;;1.08;;
51907;SDS011;39320;53.214;6.556;2022-08-30T07:24:04;2.75;;;1.05;;
51907;SDS011;39320;53.214;6.556;2022-08-30T07:26:34;3.10;;;1.00;;
51907;SDS011;39320;53.214;6.556;2022-08-30T07:29:07;5.43;;;1.65;;
51907;SDS011;39320;53.214;6.556;2022-08-30T07:31:34;4.50;;;1.65;;
51907;SDS011;39320;53.214;6.556;2022-08-30T07:34:00;4.20;;;1.40;;
51907;SDS011;39320;53.214;6.556;2022-08-30T07:36:27;3.72;;;1.67;;
51907;SDS011;39320;53.214;6.556;2022-08-30T07:38:53;2.28;;;1.10;;
51907;SDS011;39320;53.214;6.556;2022-08-30T07:41:20;2.47;;;1.10;;
51907;SDS011;39320;53.214;6.556;2022-08-30T07:43:52;2.65;;;0.80;;
51907;SDS011;39320;53.214;6.556;2022-08-30T07:46:18;1.60;;;0.77;;
51907;SDS011;39320;53.214;6.556;2022-08-30T07:48:44;1.55;;;0.85;;
51907;SDS011;39320;53.214;6.556;2022-08-30T07:51:11;3.25;;;1.15;;
51907;SDS011;39320;53.214;6.556;2022-08-30T07:53:48;2.58;;;1.10;;
51907;SDS011;39320;53.214;6.556;2022-08-30T07:56:14;2.97;;;1.30;;
51907;SDS011;39320;53.214;6.556;2022-08-30T07:58:40;2.90;;;0.95;;
51907;SDS011;39320;53.214;6.556;2022-08-30T08:01:06;2.85;;;0.93;;
51907;SDS011;39320;53.214;6.556;2022-08-30T08:03:33;2.50;;;0.70;;
51907;SDS011;39320;53.214;6.556;2022-08-30T08:06:00;2.60;;;1.10;;
51907;SDS011;39320;53.214;6.556;2022-08-30T08:08:27;4.43;;;1.23;;
51907;SDS011;39320;53.214;6.556;2022-08-30T08:10:54;3.10;;;1.40;;
51907;SDS011;39320;53.214;6.556;2022-08-30T08:13:19;4.30;;;1.00;;
51907;SDS011;39320;53.214;6.556;2022-08-30T08:15:45;2.33;;;0.85;;
51907;SDS011;39320;53.214;6.556;2022-08-30T08:18:11;3.40;;;1.08;;
51907;SDS011;39320;53.214;6.556;2022-08-30T08:20:37;2.55;;;1.15;;
51907;SDS011;39320;53.214;6.556;2022-08-30T08:23:03;2.03;;;1.10;;
51907;SDS011;39320;53.214;6.556;2022-08-30T08:25:29;1.98;;;0.90;;
51907;SDS011;39320;53.214;6.556;2022-08-30T08:27:55;1.80;;;0.85;;
51907;SDS011;39320;53.214;6.556;2022-08-30T08:30:21;1.95;;;1.20;;
51907;SDS011;39320;53.214;6.556;2022-08-30T08:32:48;3.17;;;1.10;;
51907;SDS011;39320;53.214;6.556;2022-08-30T08:35:14;3.95;;;1.05;;
51907;SDS011;39320;53.214;6.556;2022-08-30T08:37:41;1.55;;;0.80;;
51907;SDS011;39320;53.214;6.556;2022-08-30T08:40:08;1.90;;;1.00;;
51907;SDS011;39320;53.214;6.556;2022-08-30T08:42:53;3.63;;;1.08;;
51907;SDS011;39320;53.214;6.556;2022-08-30T08:50:58;2.00;;;1.10;;
51907;SDS011;39320;53.214;6.556;2022-08-30T08:56:15;5.20;;;1.52;;
51907;SDS011;39320;53.214;6.556;2022-08-30T08:58:54;6.30;;;1.17;;
51907;SDS011;39320;53.214;6.556;2022-08-30T09:03:52;4.13;;;1.00;;
51907;SDS011;39320;53.214;6.556;2022-08-30T09:08:56;1.65;;;0.90;;
51907;SDS011;39320;53.214;6.556;2022-08-30T09:11:24;5.50;;;0.93;;
51907;SDS011;39320;53.214;6.556;2022-08-30T09:13:52;4.03;;;1.08;;
51907;SDS011;39320;53.214;6.556;2022-08-30T09:19:14;2.20;;;1.00;;
51907;SDS011;39320;53.214;6.556;2022-08-30T09:25:02;6.50;;;1.02;;
51907;SDS011;39320;53.214;6.556;2022-08-30T09:27:38;2.88;;;1.30;;
51907;SDS011;39320;53.214;6.556;2022-08-30T09:35:38;1.77;;;0.88;;
51907;SDS011;39320;53.214;6.556;2022-08-30T09:38:09;2.42;;;1.00;;
51907;SDS011;39320;53.214;6.556;2022-08-30T09:40:48;1.67;;;0.80;;
51907;SDS011;39320;53.214;6.556;2022-08-30T09:45:45;2.00;;;0.90;;
51907;SDS011;39320;53.214;6.556;2022-08-30T09:48:40;3.28;;;0.90;;
51907;SDS011;39320;53.214;6.556;2022-08-30T09:53:35;2.30;;;1.17;;
51907;SDS011;39320;53.214;6.556;2022-08-30T10:01:47;3.35;;;1.05;;
51907;SDS011;39320;53.214;6.556;2022-08-30T10:04:22;2.50;;;1.17;;
51907;SDS011;39320;53.214;6.556;2022-08-30T10:07:22;2.75;;;0.95;;
51907;SDS011;39320;53.214;6.556;2022-08-30T10:12:34;2.95;;;1.10;;
51907;SDS011;39320;53.214;6.556;2022-08-30T10:17:59;4.65;;;1.13;;
51907;SDS011;39320;53.214;6.556;2022-08-30T10:23:27;4.07;;;1.02;;
51907;SDS011;39320;53.214;6.556;2022-08-30T10:39:40;3.00;;;0.85;;
51907;SDS011;39320;53.214;6.556;2022-08-30T10:42:17;2.45;;;0.88;;
51907;SDS011;39320;53.214;6.556;2022-08-30T10:45:12;1.92;;;0.80;;
51907;SDS011;39320;53.214;6.556;2022-08-30T10:47:42;2.30;;;1.45;;
51907;SDS011;39320;53.214;6.556;2022-08-30T10:50:17;0.90;;;0.50;;
51907;SDS011;39320;53.214;6.556;2022-08-30T10:52:52;1.45;;;0.63;;
51907;SDS011;39320;53.214;6.556;2022-08-30T10:55:25;2.67;;;1.10;;
51907;SDS011;39320;53.214;6.556;2022-08-30T10:57:58;3.15;;;1.10;;
51907;SDS011;39320;53.214;6.556;2022-08-30T11:00:27;2.75;;;1.10;;
51907;SDS011;39320;53.214;6.556;2022-08-30T11:03:27;2.05;;;0.90;;
51907;SDS011;39320;53.214;6.556;2022-08-30T11:14:31;2.63;;;0.70;;
51907;SDS011;39320;53.214;6.556;2022-08-30T11:16:58;2.45;;;0.73;;
51907;SDS011;39320;53.214;6.556;2022-08-30T11:19:35;1.83;;;0.85;;
51907;SDS011;39320;53.214;6.556;2022-08-30T11:25:06;2.63;;;1.02;;
51907;SDS011;39320;53.214;6.556;2022-08-30T11:27:50;1.90;;;0.65;;
51907;SDS011;39320;53.214;6.556;2022-08-30T11:38:18;2.58;;;0.75;;
51907;SDS011;39320;53.214;6.556;2022-08-30T11:41:05;2.33;;;0.88;;
51907;SDS011;39320;53.214;6.556;2022-08-30T11:46:19;2.17;;;1.23;;
51907;SDS011;39320;53.214;6.556;2022-08-30T11:57:19;2.42;;;1.20;;
51907;SDS011;39320;53.214;6.556;2022-08-30T11:59:53;2.30;;;0.80;;
51907;SDS011;39320;53.214;6.556;2022-08-30T12:05:03;1.67;;;0.90;;
51907;SDS011;39320;53.214;6.556;2022-08-30T12:10:22;1.02;;;0.65;;
51907;SDS011;39320;53.214;6.556;2022-08-30T12:13:00;2.90;;;1.00;;
51907;SDS011;39320;53.214;6.556;2022-08-30T12:16:12;3.42;;;1.20;;
51907;SDS011;39320;53.214;6.556;2022-08-30T12:18:27;1.13;;;0.65;;
51907;SDS011;39320;53.214;6.556;2022-08-30T12:24:20;3.20;;;1.00;;
51907;SDS011;39320;53.214;6.556;2022-08-30T12:26:53;1.65;;;0.65;;
51907;SDS011;39320;53.214;6.556;2022-08-30T12:29:24;1.98;;;0.65;;
51907;SDS011;39320;53.214;6.556;2022-08-30T12:34:22;2.05;;;0.80;;
51907;SDS011;39320;53.214;6.556;2022-08-30T12:36:51;4.63;;;0.93;;
51907;SDS011;39320;53.214;6.556;2022-08-30T12:39:19;1.20;;;0.70;;
51907;SDS011;39320;53.214;6.556;2022-08-30T12:41:48;7.03;;;1.30;;
51907;SDS011;39320;53.214;6.556;2022-08-30T12:44:16;3.22;;;1.02;;
51907;SDS011;39320;53.214;6.556;2022-08-30T12:46:50;2.88;;;1.08;;
51907;SDS011;39320;53.214;6.556;2022-08-30T12:49:19;3.63;;;0.73;;
51907;SDS011;39320;53.214;6.556;2022-08-30T12:51:48;2.47;;;1.00;;
51907;SDS011;39320;53.214;6.556;2022-08-30T12:54:15;2.60;;;1.10;;
51907;SDS011;39320;53.214;6.556;2022-08-30T12:59:37;2.35;;;0.85;;
51907;SDS011;39320;53.214;6.556;2022-08-30T13:05:26;2.08;;;0.80;;
51907;SDS011;39320;53.214;6.556;2022-08-30T13:08:19;1.73;;;0.90;;
51907;SDS011;39320;53.214;6.556;2022-08-30T13:13:45;1.95;;;1.05;;
51907;SDS011;39320;53.214;6.556;2022-08-30T13:16:24;4.45;;;1.20;;
51907;SDS011;39320;53.214;6.556;2022-08-30T13:19:16;6.10;;;0.95;;
51907;SDS011;39320;53.214;6.556;2022-08-30T13:21:54;2.15;;;0.90;;
51907;SDS011;39320;53.214;6.556;2022-08-30T13:24:21;2.33;;;0.90;;
51907;SDS011;39320;53.214;6.556;2022-08-30T13:26:47;3.80;;;1.10;;
51907;SDS011;39320;53.214;6.556;2022-08-30T13:29:14;1.85;;;0.90;;
51907;SDS011;39320;53.214;6.556;2022-08-30T13:31:45;3.00;;;0.90;;
51907;SDS011;39320;53.214;6.556;2022-08-30T13:34:11;1.85;;;1.15;;
51907;SDS011;39320;53.214;6.556;2022-08-30T13:36:52;3.25;;;1.00;;
51907;SDS011;39320;53.214;6.556;2022-08-30T13:39:19;2.28;;;1.17;;
51907;SDS011;39320;53.214;6.556;2022-08-30T13:41:45;3.30;;;1.00;;
51907;SDS011;39320;53.214;6.556;2022-08-30T13:44:11;1.83;;;1.00;;
51907;SDS011;39320;53.214;6.556;2022-08-30T13:46:37;1.70;;;0.90;;
51907;SDS011;39320;53.214;6.556;2022-08-30T13:49:07;2.70;;;1.00;;
51907;SDS011;39320;53.214;6.556;2022-08-30T13:51:36;1.27;;;0.65;;
51907;SDS011;39320;53.214;6.556;2022-08-30T13:54:02;1.58;;;0.70;;
51907;SDS011;39320;53.214;6.556;2022-08-30T13:56:28;1.50;;;0.82;;
51907;SDS011;39320;53.214;6.556;2022-08-30T13:58:56;3.28;;;1.05;;
51907;SDS011;39320;53.214;6.556;2022-08-30T14:01:23;4.28;;;1.05;;
51907;SDS011;39320;53.214;6.556;2022-08-30T14:03:49;1.67;;;0.90;;
51907;SDS011;39320;53.214;6.556;2022-08-30T14:06:15;1.48;;;0.90;;
51907;SDS011;39320;53.214;6.556;2022-08-30T14:08:41;2.08;;;1.02;;
51907;SDS011;39320;53.214;6.556;2022-08-30T14:11:07;2.70;;;0.73;;
51907;SDS011;39320;53.214;6.556;2022-08-30T14:13:35;2.45;;;1.13;;
51907;SDS011;39320;53.214;6.556;2022-08-30T14:16:03;5.90;;;1.23;;
51907;SDS011;39320;53.214;6.556;2022-08-30T14:18:32;2.42;;;0.95;;
51907;SDS011;39320;53.214;6.556;2022-08-30T14:20:58;2.63;;;1.40;;
51907;SDS011;39320;53.214;6.556;2022-08-30T14:23:24;3.28;;;1.40;;
51907;SDS011;39320;53.214;6.556;2022-08-30T14:25:53;4.32;;;2.80;;
51907;SDS011;39320;53.214;6.556;2022-08-30T14:28:19;3.15;;;1.15;;
51907;SDS011;39320;53.214;6.556;2022-08-30T14:30:45;2.92;;;1.20;;
51907;SDS011;39320;53.214;6.556;2022-08-30T14:33:12;5.30;;;1.27;;
51907;SDS011;39320;53.214;6.556;2022-08-30T14:35:38;2.13;;;0.90;;
51907;SDS011;39320;53.214;6.556;2022-08-30T14:38:06;4.30;;;1.30;;
51907;SDS011;39320;53.214;6.556;2022-08-30T14:40:32;2.95;;;1.00;;
51907;SDS011;39320;53.214;6.556;2022-08-30T14:42:58;3.83;;;1.10;;
51907;SDS011;39320;53.214;6.556;2022-08-30T14:45:24;2.83;;;1.13;;
51907;SDS011;39320;53.214;6.556;2022-08-30T14:47:50;1.67;;;0.80;;
51907;SDS011;39320;53.214;6.556;2022-08-30T14:50:16;5.35;;;1.00;;
51907;SDS011;39320;53.214;6.556;2022-08-30T14:52:42;1.55;;;0.80;;
51907;SDS011;39320;53.214;6.556;2022-08-30T14:55:08;2.90;;;1.08;;
51907;SDS011;39320;53.214;6.556;2022-08-30T14:57:36;1.55;;;1.02;;
51907;SDS011;39320;53.214;6.556;2022-08-30T15:00:03;5.30;;;4.47;;
51907;SDS011;39320;53.214;6.556;2022-08-30T15:02:30;3.55;;;1.23;;
51907;SDS011;39320;53.214;6.556;2022-08-30T15:04:56;2.05;;;1.20;;
51907;SDS011;39320;53.214;6.556;2022-08-30T15:07:22;1.90;;;1.20;;
51907;SDS011;39320;53.214;6.556;2022-08-30T15:09:48;3.42;;;1.20;;
51907;SDS011;39320;53.214;6.556;2022-08-30T15:12:13;3.63;;;1.08;;
51907;SDS011;39320;53.214;6.556;2022-08-30T15:14:39;3.42;;;1.30;;
51907;SDS011;39320;53.214;6.556;2022-08-30T15:17:05;3.22;;;0.90;;
51907;SDS011;39320;53.214;6.556;2022-08-30T15:19:31;3.85;;;1.10;;
51907;SDS011;39320;53.214;6.556;2022-08-30T15:21:58;2.97;;;1.13;;
51907;SDS011;39320;53.214;6.556;2022-08-30T15:24:26;1.95;;;0.88;;
51907;SDS011;39320;53.214;6.556;2022-08-30T15:26:52;3.90;;;1.10;;
51907;SDS011;39320;53.214;6.556;2022-08-30T15:29:19;3.78;;;1.33;;
51907;SDS011;39320;53.214;6.556;2022-08-30T15:31:46;2.10;;;1.30;;
51907;SDS011;39320;53.214;6.556;2022-08-30T15:34:14;2.22;;;1.10;;
51907;SDS011;39320;53.214;6.556;2022-08-30T15:36:41;2.00;;;1.13;;
51907;SDS011;39320;53.214;6.556;2022-08-30T15:39:09;3.10;;;1.30;;
51907;SDS011;39320;53.214;6.556;2022-08-30T15:41:36;3.47;;;1.20;;
51907;SDS011;39320;53.214;6.556;2022-08-30T15:44:04;1.67;;;0.90;;
51907;SDS011;39320;53.214;6.556;2022-08-30T15:46:32;3.92;;;1.48;;
51907;SDS011;39320;53.214;6.556;2022-08-30T15:49:03;2.08;;;1.10;;
51907;SDS011;39320;53.214;6.556;2022-08-30T15:51:32;2.03;;;1.00;;
51907;SDS011;39320;53.214;6.556;2022-08-30T15:54:00;1.63;;;0.77;;
51907;SDS011;39320;53.214;6.556;2022-08-30T15:56:27;2.80;;;1.42;;
51907;SDS011;39320;53.214;6.556;2022-08-30T15:58:53;2.38;;;1.35;;
51907;SDS011;39320;53.214;6.556;2022-08-30T16:01:23;2.53;;;1.17;;
51907;SDS011;39320;53.214;6.556;2022-08-30T16:03:49;2.45;;;0.95;;
51907;SDS011;39320;53.214;6.556;2022-08-30T16:06:16;2.95;;;1.10;;
51907;SDS011;39320;53.214;6.556;2022-08-30T16:08:45;2.75;;;1.60;;
51907;SDS011;39320;53.214;6.556;2022-08-30T16:11:12;4.63;;;1.50;;
51907;SDS011;39320;53.214;6.556;2022-08-30T16:13:39;2.58;;;1.17;;
51907;SDS011;39320;53.214;6.556;2022-08-30T16:16:06;4.13;;;1.80;;
51907;SDS011;39320;53.214;6.556;2022-08-30T16:18:33;2.75;;;1.52;;
51907;SDS011;39320;53.214;6.556;2022-08-30T16:21:00;4.43;;;1.70;;
51907;SDS011;39320;53.214;6.556;2022-08-30T16:23:47;5.45;;;1.63;;
51907;SDS011;39320;53.214;6.556;2022-08-30T16:26:13;8.45;;;2.05;;
51907;SDS011;39320;53.214;6.556;2022-08-30T16:28:42;4.85;;;1.58;;
51907;SDS011;39320;53.214;6.556;2022-08-30T16:31:09;4.40;;;1.60;;
51907;SDS011;39320;53.214;6.556;2022-08-30T16:33:35;4.15;;;1.40;;
51907;SDS011;39320;53.214;6.556;2022-08-30T16:36:01;3.33;;;1.88;;
51907;SDS011;39320;53.214;6.556;2022-08-30T16:38:27;4.05;;;1.40;;
51907;SDS011;39320;53.214;6.556;2022-08-30T16:40:53;4.75;;;1.35;;
51907;SDS011;39320;53.214;6.556;2022-08-30T16:43:19;3.25;;;1.60;;